Time;durP1;ratioP1;P1;durP2;ratioP2;P2;SDS_P1;SDS_P2;PMS_P1;PMS_P2;Temp;Humidity;BMP_temperature;BMP_pressure;BME280_temperature;BME280_humidity;BME280_pressure;Samples;Min_cycle;Max_cycle;Signal;HPM_P1;HPM_P2
2020/12/14 00:00:37;;;;;;;5.83;2.00;;;;;;;;;;5029155;28;20181;-73
2020/12/14 00:03:02;;;;;;;6.80;2.70;;;;;;;;;;5028760;28;20229;-73
2020/12/14 00:05:27;;;;;;;10.10;1.50;;;;;;;;;;5032800;28;20182;-74
2020/12/14 00:07:53;;;;;;;7.23;2.00;;;;;;;;;;5027556;28;20185;-72
2020/12/14 00:10:18;;;;;;;4.50;2.10;;;;;;;;;;5036694;28;20200;-74
2020/12/14 00:12:43;;;;;;;3.83;2.10;;;;;;;;;;5031047;28;20216;-73
2020/12/14 00:15:08;;;;;;;7.90;2.73;;;;;;;;;;5030720;28;20599;-73
2020/12/14 00:17:33;;;;;;;2.83;1.77;;;;;;;;;;5029121;28;20174;-73
2020/12/14 00:19:59;;;;;;;5.47;2.20;;;;;;;;;;5027122;28;20186;-73
2020/12/14 00:22:24;;;;;;;4.07;2.03;;;;;;;;;;5031601;28;20303;-75
2020/12/14 00:24:49;;;;;;;3.97;1.70;;;;;;;;;;5029933;28;20186;-72
2020/12/14 00:27:15;;;;;;;6.43;1.77;;;;;;;;;;5032239;28;20194;-74
2020/12/14 00:29:40;;;;;;;6.37;2.60;;;;;;;;;;5030583;28;20183;-72
2020/12/14 00:32:05;;;;;;;10.07;2.03;;;;;;;;;;5026438;28;20189;-72
2020/12/14 00:34:31;;;;;;;3.70;1.77;;;;;;;;;;5034609;28;20740;-75
2020/12/14 00:36:56;;;;;;;8.53;2.40;;;;;;;;;;5031211;28;20174;-72
2020/12/14 00:39:21;;;;;;;3.47;1.70;;;;;;;;;;5031268;28;20178;-73
2020/12/14 00:41:46;;;;;;;4.37;1.90;;;;;;;;;;5036380;28;20623;-71
2020/12/14 00:44:11;;;;;;;5.33;1.70;;;;;;;;;;5031540;28;20201;-72
2020/12/14 00:46:36;;;;;;;6.00;1.77;;;;;;;;;;5032067;28;20625;-75
2020/12/14 00:49:02;;;;;;;3.93;1.83;;;;;;;;;;5031201;28;20273;-72
2020/12/14 00:51:28;;;;;;;7.57;2.20;;;;;;;;;;5033623;28;20185;-74
2020/12/14 00:53:54;;;;;;;7.50;2.03;;;;;;;;;;5026919;28;20206;-74
2020/12/14 00:56:19;;;;;;;5.97;1.43;;;;;;;;;;5029627;28;20220;-73
2020/12/14 00:58:44;;;;;;;7.63;1.93;;;;;;;;;;5029227;28;20190;-73
2020/12/14 01:01:11;;;;;;;6.90;1.70;;;;;;;;;;5036090;28;20200;-73
2020/12/14 01:03:36;;;;;;;7.00;1.70;;;;;;;;;;5031338;28;20272;-73
2020/12/14 01:06:01;;;;;;;5.23;1.80;;;;;;;;;;5029906;28;20266;-73
2020/12/14 01:08:26;;;;;;;3.00;2.33;;;;;;;;;;5030094;28;20273;-72
2020/12/14 01:10:51;;;;;;;3.03;1.30;;;;;;;;;;5029987;28;20186;-73
2020/12/14 01:13:17;;;;;;;5.70;2.00;;;;;;;;;;5033104;28;20240;-74
2020/12/14 01:15:42;;;;;;;4.63;1.90;;;;;;;;;;5036780;28;20208;-73
2020/12/14 01:18:07;;;;;;;4.43;1.83;;;;;;;;;;5029139;28;20190;-71
2020/12/14 01:20:33;;;;;;;3.83;1.93;;;;;;;;;;5037110;28;20177;-73
2020/12/14 01:22:58;;;;;;;4.27;2.20;;;;;;;;;;5029070;28;20234;-72
2020/12/14 01:25:23;;;;;;;2.07;1.40;;;;;;;;;;5030312;28;20700;-73
2020/12/14 01:27:48;;;;;;;3.60;2.00;;;;;;;;;;5034277;28;20227;-73
2020/12/14 01:30:13;;;;;;;2.37;1.37;;;;;;;;;;5035026;28;20733;-73
2020/12/14 01:32:39;;;;;;;4.13;1.73;;;;;;;;;;5031938;28;20205;-73
2020/12/14 01:35:04;;;;;;;4.57;1.50;;;;;;;;;;5030372;28;20220;-72
2020/12/14 01:37:29;;;;;;;4.23;1.50;;;;;;;;;;5034304;28;20202;-73
2020/12/14 01:39:54;;;;;;;2.93;1.17;;;;;;;;;;5029749;28;20948;-73
2020/12/14 01:42:22;;;;;;;5.53;1.87;;;;;;;;;;5030757;28;20210;-73
2020/12/14 01:44:48;;;;;;;3.43;1.60;;;;;;;;;;5033923;28;20684;-74
2020/12/14 01:47:13;;;;;;;7.03;1.87;;;;;;;;;;5032241;28;20205;-74
2020/12/14 01:49:38;;;;;;;6.07;1.90;;;;;;;;;;5030548;28;20177;-74
2020/12/14 01:52:03;;;;;;;5.23;1.60;;;;;;;;;;5029152;28;20189;-73
2020/12/14 01:54:30;;;;;;;4.23;1.50;;;;;;;;;;5028866;28;20635;-74
2020/12/14 01:56:55;;;;;;;2.70;1.77;;;;;;;;;;5029861;28;20182;-73
2020/12/14 01:59:20;;;;;;;5.97;2.17;;;;;;;;;;5028526;28;20189;-73
2020/12/14 02:01:45;;;;;;;2.63;1.57;;;;;;;;;;5032315;28;20186;-73
2020/12/14 02:04:11;;;;;;;2.23;1.50;;;;;;;;;;5033240;28;20208;-74
2020/12/14 02:06:36;;;;;;;4.60;1.70;;;;;;;;;;5031693;28;20205;-74
2020/12/14 02:09:01;;;;;;;5.07;1.70;;;;;;;;;;5030850;28;20291;-74
2020/12/14 02:11:27;;;;;;;3.73;2.23;;;;;;;;;;5035287;28;20178;-73
2020/12/14 02:13:52;;;;;;;3.53;1.70;;;;;;;;;;5034383;28;20210;-73
2020/12/14 02:16:17;;;;;;;5.07;2.10;;;;;;;;;;5025899;28;20194;-74
2020/12/14 02:18:42;;;;;;;5.90;2.13;;;;;;;;;;5030195;28;20204;-74
2020/12/14 02:21:08;;;;;;;4.17;2.57;;;;;;;;;;5028483;28;20236;-74
2020/12/14 02:23:33;;;;;;;4.00;2.60;;;;;;;;;;5028395;28;20640;-74
2020/12/14 02:25:58;;;;;;;5.27;2.03;;;;;;;;;;5031373;28;20193;-74
2020/12/14 02:28:23;;;;;;;3.50;2.20;;;;;;;;;;5037568;28;20232;-74
2020/12/14 02:30:48;;;;;;;4.57;2.20;;;;;;;;;;5029862;28;20189;-74
2020/12/14 02:33:13;;;;;;;5.20;1.90;;;;;;;;;;5028762;28;20197;-74
2020/12/14 02:35:39;;;;;;;3.00;2.20;;;;;;;;;;5027841;28;20741;-74
2020/12/14 02:38:06;;;;;;;3.50;1.90;;;;;;;;;;5029643;28;20165;-74
2020/12/14 02:40:31;;;;;;;2.93;1.80;;;;;;;;;;5028382;28;20991;-74
2020/12/14 02:42:56;;;;;;;2.20;2.00;;;;;;;;;;5030701;28;20202;-74
2020/12/14 02:45:21;;;;;;;5.07;2.53;;;;;;;;;;5028802;28;20178;-74
2020/12/14 02:47:46;;;;;;;4.05;2.47;;;;;;;;;;5029556;28;20627;-73
2020/12/14 02:50:11;;;;;;;3.93;2.33;;;;;;;;;;5027534;28;20186;-74
2020/12/14 02:52:37;;;;;;;3.17;2.30;;;;;;;;;;5032259;28;20203;-73
2020/12/14 02:55:02;;;;;;;3.97;2.43;;;;;;;;;;5031786;28;20231;-74
2020/12/14 02:57:27;;;;;;;5.40;2.50;;;;;;;;;;5027936;28;20181;-74
2020/12/14 02:59:52;;;;;;;4.80;2.97;;;;;;;;;;5035212;28;20189;-74
2020/12/14 03:02:17;;;;;;;5.57;3.00;;;;;;;;;;5027334;28;20715;-73
2020/12/14 03:04:43;;;;;;;4.07;2.77;;;;;;;;;;5029543;28;20190;-73
2020/12/14 03:07:08;;;;;;;4.97;2.50;;;;;;;;;;5029375;28;20213;-73
2020/12/14 03:09:33;;;;;;;4.23;3.00;;;;;;;;;;5031151;28;20200;-73
2020/12/14 03:12:00;;;;;;;3.67;2.83;;;;;;;;;;5027997;28;20178;-74
2020/12/14 03:14:26;;;;;;;4.27;3.00;;;;;;;;;;5025710;28;20610;-74
2020/12/14 03:16:51;;;;;;;5.93;3.07;;;;;;;;;;5025600;28;20238;-74
2020/12/14 03:19:16;;;;;;;4.77;3.30;;;;;;;;;;5034509;28;20193;-74
2020/12/14 03:21:41;;;;;;;5.97;2.53;;;;;;;;;;5045611;28;20193;-74
2020/12/14 03:24:07;;;;;;;7.70;4.20;;;;;;;;;;5046744;28;20757;-74
2020/12/14 03:26:32;;;;;;;4.27;3.20;;;;;;;;;;5047612;28;20209;-73
2020/12/14 03:28:58;;;;;;;5.40;3.87;;;;;;;;;;5050954;28;20188;-74
2020/12/14 03:31:23;;;;;;;6.03;4.00;;;;;;;;;;5038656;28;20658;-75
2020/12/14 03:33:50;;;;;;;5.47;3.77;;;;;;;;;;5028382;28;20308;-73
2020/12/14 03:36:15;;;;;;;6.23;4.17;;;;;;;;;;5028200;28;20190;-74
2020/12/14 03:38:40;;;;;;;4.93;3.60;;;;;;;;;;5029226;28;20189;-74
2020/12/14 03:41:06;;;;;;;7.53;3.93;;;;;;;;;;5028178;28;20188;-74
2020/12/14 03:43:31;;;;;;;4.60;4.20;;;;;;;;;;5027804;28;20576;-74
2020/12/14 03:45:57;;;;;;;3.57;3.27;;;;;;;;;;5031176;28;20288;-73
2020/12/14 03:48:22;;;;;;;4.53;3.73;;;;;;;;;;5028352;28;20545;-74
2020/12/14 03:50:48;;;;;;;5.20;4.13;;;;;;;;;;5028386;28;20782;-74
2020/12/14 03:53:13;;;;;;;8.33;4.30;;;;;;;;;;5027587;28;20343;-74
2020/12/14 03:55:38;;;;;;;4.83;3.90;;;;;;;;;;5031171;28;20644;-74
2020/12/14 03:58:04;;;;;;;4.77;4.37;;;;;;;;;;5028791;28;20235;-74
2020/12/14 04:00:29;;;;;;;7.23;4.27;;;;;;;;;;5027068;28;20802;-73
2020/12/14 04:02:54;;;;;;;5.83;4.53;;;;;;;;;;5028094;28;20236;-74
2020/12/14 04:05:19;;;;;;;7.20;4.37;;;;;;;;;;5028280;28;20184;-74
2020/12/14 04:07:45;;;;;;;4.97;4.33;;;;;;;;;;5033384;28;20209;-74
2020/12/14 04:10:10;;;;;;;6.03;4.17;;;;;;;;;;5031273;28;20236;-76
2020/12/14 04:12:35;;;;;;;5.27;4.60;;;;;;;;;;5031081;28;20214;-74
2020/12/14 04:15:00;;;;;;;4.90;4.47;;;;;;;;;;5032255;28;20193;-75
2020/12/14 04:17:25;;;;;;;5.00;4.43;;;;;;;;;;5040207;28;20232;-74
2020/12/14 04:19:50;;;;;;;5.70;4.17;;;;;;;;;;5035824;28;20247;-74
2020/12/14 04:22:16;;;;;;;7.20;4.13;;;;;;;;;;5033779;28;20615;-75
2020/12/14 04:24:41;;;;;;;5.57;4.50;;;;;;;;;;5032405;28;21338;-75
2020/12/14 04:27:06;;;;;;;8.93;4.83;;;;;;;;;;5032675;28;20297;-74
2020/12/14 04:29:31;;;;;;;7.33;4.40;;;;;;;;;;5037586;28;20178;-75
2020/12/14 04:31:56;;;;;;;9.27;5.00;;;;;;;;;;5035614;28;20182;-74
2020/12/14 04:34:21;;;;;;;10.13;6.47;;;;;;;;;;5030711;28;20174;-74
2020/12/14 04:36:47;;;;;;;5.13;4.63;;;;;;;;;;5034830;28;20195;-74
2020/12/14 04:39:13;;;;;;;5.97;4.43;;;;;;;;;;5030139;28;20181;-74
2020/12/14 04:41:38;;;;;;;6.40;5.73;;;;;;;;;;5034842;28;20666;-74
2020/12/14 04:44:04;;;;;;;6.40;4.97;;;;;;;;;;5031300;28;20293;-75
2020/12/14 04:46:32;;;;;;;8.57;5.00;;;;;;;;;;5036514;28;20194;-74
2020/12/14 04:48:58;;;;;;;6.53;4.93;;;;;;;;;;5031038;28;20183;-74
2020/12/14 04:51:23;;;;;;;5.73;4.73;;;;;;;;;;5033933;28;20184;-74
2020/12/14 04:53:49;;;;;;;7.30;4.83;;;;;;;;;;5030742;28;20198;-74
2020/12/14 04:56:20;;;;;;;8.67;5.47;;;;;;;;;;5034552;28;20278;-74
2020/12/14 04:58:45;;;;;;;5.63;4.93;;;;;;;;;;5029803;28;20200;-74
2020/12/14 05:01:10;;;;;;;8.30;5.43;;;;;;;;;;5031608;28;20190;-74
2020/12/14 05:03:36;;;;;;;7.07;5.23;;;;;;;;;;5030034;28;20202;-74
2020/12/14 05:06:01;;;;;;;8.70;4.90;;;;;;;;;;5037148;28;20666;-74
2020/12/14 05:08:27;;;;;;;12.50;4.97;;;;;;;;;;5033270;28;20185;-74
2020/12/14 05:10:52;;;;;;;6.33;5.00;;;;;;;;;;5030184;28;20179;-74
2020/12/14 05:13:17;;;;;;;5.80;4.83;;;;;;;;;;5035071;28;20217;-74
2020/12/14 05:15:42;;;;;;;10.43;5.50;;;;;;;;;;5045615;28;20182;-74
2020/12/14 05:18:15;;;;;;;5.83;5.23;;;;;;;;;;5035973;28;22430;-75
2020/12/14 05:20:56;;;;;;;8.60;6.17;;;;;;;;;;5028106;28;20186;-74
2020/12/14 05:23:21;;;;;;;8.07;5.13;;;;;;;;;;5032505;28;20209;-75
2020/12/14 05:25:46;;;;;;;6.80;4.93;;;;;;;;;;5028830;28;20558;-75
2020/12/14 05:28:14;;;;;;;7.23;5.20;;;;;;;;;;5032565;28;20189;-74
2020/12/14 05:30:43;;;;;;;6.97;4.97;;;;;;;;;;5032758;28;20662;-74
2020/12/14 05:33:10;;;;;;;6.47;5.77;;;;;;;;;;5032620;28;20285;-75
2020/12/14 05:35:36;;;;;;;8.77;5.07;;;;;;;;;;5031039;28;20277;-75
2020/12/14 05:38:28;;;;;;;7.00;5.00;;;;;;;;;;5035671;28;20713;-74
2020/12/14 05:40:57;;;;;;;8.10;5.33;;;;;;;;;;5029145;28;20256;-75
2020/12/14 05:43:24;;;;;;;6.00;5.40;;;;;;;;;;5030101;28;20593;-74
2020/12/14 05:45:50;;;;;;;6.40;5.80;;;;;;;;;;5029399;28;20252;-74
2020/12/14 05:48:28;;;;;;;6.43;5.03;;;;;;;;;;5033834;28;20177;-74
2020/12/14 05:50:55;;;;;;;6.03;5.07;;;;;;;;;;5030755;28;20226;-74
2020/12/14 05:53:21;;;;;;;4.80;4.40;;;;;;;;;;5032455;28;20197;-74
2020/12/14 05:55:47;;;;;;;5.40;4.90;;;;;;;;;;5029369;28;21461;-75
2020/12/14 05:58:16;;;;;;;6.37;5.33;;;;;;;;;;5028358;28;20193;-74
2020/12/14 06:00:45;;;;;;;6.20;5.60;;;;;;;;;;5026053;28;20235;-75
2020/12/14 06:03:12;;;;;;;6.40;5.63;;;;;;;;;;5029954;28;20896;-75
2020/12/14 06:05:38;;;;;;;5.60;5.10;;;;;;;;;;5029844;28;20469;-75
2020/12/14 06:08:14;;;;;;;6.50;5.40;;;;;;;;;;5032892;28;20205;-75
2020/12/14 06:10:43;;;;;;;5.50;5.00;;;;;;;;;;5030689;28;20233;-72
2020/12/14 06:13:15;;;;;;;5.90;5.30;;;;;;;;;;5032266;28;20215;-74
2020/12/14 06:15:44;;;;;;;6.37;5.70;;;;;;;;;;5028016;28;20252;-74
2020/12/14 06:18:12;;;;;;;6.93;6.23;;;;;;;;;;5032190;28;20190;-74
2020/12/14 06:20:37;;;;;;;6.30;5.70;;;;;;;;;;5028212;28;20182;-75
2020/12/14 06:23:04;;;;;;;9.37;6.77;;;;;;;;;;5032263;28;20212;-75
2020/12/14 06:25:30;;;;;;;7.60;6.67;;;;;;;;;;5029927;28;20189;-75
2020/12/14 06:27:55;;;;;;;7.87;6.50;;;;;;;;;;5030022;28;20201;-76
2020/12/14 06:30:26;;;;;;;8.17;6.80;;;;;;;;;;5032037;28;20182;-76
2020/12/14 06:32:57;;;;;;;6.87;6.23;;;;;;;;;;5030183;28;20727;-76
2020/12/14 06:35:40;;;;;;;7.00;6.40;;;;;;;;;;5028506;28;20212;-76
2020/12/14 06:38:05;;;;;;;8.20;6.10;;;;;;;;;;5031249;28;20178;-75
2020/12/14 06:40:50;;;;;;;8.30;7.00;;;;;;;;;;5027698;28;20181;-76
2020/12/14 06:43:35;;;;;;;8.17;6.10;;;;;;;;;;5029042;28;20462;-75
2020/12/14 06:46:04;;;;;;;7.37;6.60;;;;;;;;;;5035234;28;20387;-74
2020/12/14 06:48:37;;;;;;;9.03;6.83;;;;;;;;;;5027926;28;20186;-75
2020/12/14 06:51:02;;;;;;;6.83;6.13;;;;;;;;;;5029816;28;20692;-75
2020/12/14 06:53:37;;;;;;;6.90;6.10;;;;;;;;;;5028804;28;20210;-75
2020/12/14 06:56:02;;;;;;;8.47;7.57;;;;;;;;;;5031451;28;20510;-75
2020/12/14 06:58:29;;;;;;;7.50;6.43;;;;;;;;;;5029172;28;20193;-75
2020/12/14 07:00:54;;;;;;;8.50;7.60;;;;;;;;;;5028112;28;20182;-74
2020/12/14 07:03:36;;;;;;;8.27;6.80;;;;;;;;;;5028298;28;20204;-75
2020/12/14 07:06:01;;;;;;;9.57;7.50;;;;;;;;;;5030080;28;20288;-75
2020/12/14 07:08:28;;;;;;;8.57;7.50;;;;;;;;;;5031489;28;20184;-75
2020/12/14 07:11:09;;;;;;;7.37;6.50;;;;;;;;;;5027671;28;20183;-75
2020/12/14 07:13:34;;;;;;;10.87;7.07;;;;;;;;;;5029830;28;20350;-74
2020/12/14 07:16:06;;;;;;;10.30;6.90;;;;;;;;;;5033001;28;20288;-74
2020/12/14 07:18:32;;;;;;;8.03;6.50;;;;;;;;;;5034319;28;20658;-76
2020/12/14 07:21:03;;;;;;;6.93;6.33;;;;;;;;;;5029947;28;20329;-74
2020/12/14 07:23:29;;;;;;;7.23;6.50;;;;;;;;;;5039933;28;20217;-76
2020/12/14 07:25:54;;;;;;;8.43;6.60;;;;;;;;;;5034238;28;20185;-74
2020/12/14 07:28:32;;;;;;;8.00;6.87;;;;;;;;;;5026780;28;20181;-75
2020/12/14 07:31:02;;;;;;;9.27;7.53;;;;;;;;;;5030933;28;20202;-76
2020/12/14 07:33:27;;;;;;;7.67;6.57;;;;;;;;;;5028267;28;20584;-75
2020/12/14 07:36:00;;;;;;;8.30;6.90;;;;;;;;;;5028712;28;20186;-74
2020/12/14 07:38:25;;;;;;;8.17;7.03;;;;;;;;;;5028842;28;20244;-74
2020/12/14 07:41:02;;;;;;;8.60;6.87;;;;;;;;;;5027639;28;20640;-74
2020/12/14 07:43:27;;;;;;;9.50;6.93;;;;;;;;;;5028664;28;21615;-74
2020/12/14 07:45:53;;;;;;;7.13;6.30;;;;;;;;;;5026970;28;20766;-74
2020/12/14 07:48:18;;;;;;;7.90;6.37;;;;;;;;;;5032613;28;20201;-75
2020/12/14 07:50:43;;;;;;;8.80;6.30;;;;;;;;;;5028795;28;20600;-75
2020/12/14 07:53:08;;;;;;;7.17;6.47;;;;;;;;;;5028461;28;20197;-76
2020/12/14 07:55:36;;;;;;;7.37;6.13;;;;;;;;;;5028021;28;20254;-76
2020/12/14 07:58:01;;;;;;;6.93;6.30;;;;;;;;;;5032581;28;20178;-75
2020/12/14 08:00:26;;;;;;;7.53;6.67;;;;;;;;;;5029975;28;20177;-75
2020/12/14 08:03:01;;;;;;;8.73;6.97;;;;;;;;;;5026729;28;20288;-76
2020/12/14 08:05:26;;;;;;;8.00;7.13;;;;;;;;;;5029649;28;20659;-75
2020/12/14 08:08:05;;;;;;;6.93;6.23;;;;;;;;;;5034189;28;20209;-76
2020/12/14 08:10:32;;;;;;;6.60;5.97;;;;;;;;;;5026578;28;20188;-75
2020/12/14 08:13:01;;;;;;;7.77;6.17;;;;;;;;;;5032189;28;20202;-74
2020/12/14 08:15:28;;;;;;;9.67;6.33;;;;;;;;;;5027606;28;20206;-74
2020/12/14 08:17:53;;;;;;;8.93;6.37;;;;;;;;;;5032032;28;20186;-75
2020/12/14 08:20:28;;;;;;;7.77;6.43;;;;;;;;;;5026693;28;20734;-75
2020/12/14 08:22:54;;;;;;;9.40;6.60;;;;;;;;;;5031858;28;20201;-75
2020/12/14 08:25:20;;;;;;;8.77;6.77;;;;;;;;;;5027476;28;20204;-75
2020/12/14 08:27:48;;;;;;;6.97;6.27;;;;;;;;;;5028402;28;20916;-75
2020/12/14 08:30:15;;;;;;;6.63;6.03;;;;;;;;;;5027994;28;20171;-74
2020/12/14 08:32:40;;;;;;;6.23;5.63;;;;;;;;;;5029421;28;20193;-75
2020/12/14 08:35:24;;;;;;;7.03;6.30;;;;;;;;;;5026235;28;20180;-74
2020/12/14 08:37:50;;;;;;;11.13;6.87;;;;;;;;;;5030185;28;20217;-74
2020/12/14 08:40:15;;;;;;;7.27;6.33;;;;;;;;;;5028170;28;20348;-75
2020/12/14 08:42:40;;;;;;;8.03;6.43;;;;;;;;;;5029384;28;20332;-77
2020/12/14 08:45:10;;;;;;;6.30;5.70;;;;;;;;;;5037828;28;20239;-74
2020/12/14 08:47:36;;;;;;;6.60;5.93;;;;;;;;;;5031487;28;20308;-74
2020/12/14 08:50:02;;;;;;;5.87;5.23;;;;;;;;;;5029215;28;21791;-75
2020/12/14 08:52:27;;;;;;;6.30;5.70;;;;;;;;;;5029060;28;20258;-76
2020/12/14 08:54:54;;;;;;;6.90;5.77;;;;;;;;;;5032447;28;20189;-74
2020/12/14 08:57:22;;;;;;;6.87;5.50;;;;;;;;;;5031875;28;20193;-77
2020/12/14 08:59:56;;;;;;;6.53;5.60;;;;;;;;;;5033443;28;20193;-74
2020/12/14 09:02:22;;;;;;;5.77;5.27;;;;;;;;;;5038044;28;20205;-73
2020/12/14 09:04:47;;;;;;;5.40;4.57;;;;;;;;;;5041301;28;20239;-73
2020/12/14 09:07:20;;;;;;;5.57;5.10;;;;;;;;;;5043222;28;20603;-74
2020/12/14 09:09:46;;;;;;;6.53;5.60;;;;;;;;;;5048660;28;20183;-74
2020/12/14 09:12:12;;;;;;;5.93;5.33;;;;;;;;;;5031970;28;20201;-74
2020/12/14 09:14:37;;;;;;;5.30;4.80;;;;;;;;;;5031949;28;20181;-74
2020/12/14 09:17:04;;;;;;;6.40;5.80;;;;;;;;;;5033297;28;20536;-74
2020/12/14 09:19:31;;;;;;;5.43;4.93;;;;;;;;;;5029621;28;20883;-74
2020/12/14 09:21:56;;;;;;;6.50;5.73;;;;;;;;;;5031284;28;20182;-74
2020/12/14 09:24:23;;;;;;;5.87;5.23;;;;;;;;;;5037124;28;20194;-74
2020/12/14 09:26:49;;;;;;;6.67;6.07;;;;;;;;;;5033625;28;20198;-74
2020/12/14 09:29:15;;;;;;;5.30;4.67;;;;;;;;;;5031672;28;20189;-74
2020/12/14 09:31:53;;;;;;;7.77;5.73;;;;;;;;;;5036570;28;20226;-74
2020/12/14 09:34:19;;;;;;;4.90;4.50;;;;;;;;;;5029451;28;20173;-74
2020/12/14 09:36:45;;;;;;;5.87;5.37;;;;;;;;;;5035354;28;20182;-74
2020/12/14 09:39:10;;;;;;;6.00;4.17;;;;;;;;;;5031325;28;20204;-74
2020/12/14 09:41:35;;;;;;;6.43;4.13;;;;;;;;;;5032887;28;20213;-74
2020/12/14 09:44:01;;;;;;;5.43;4.07;;;;;;;;;;5033422;28;20205;-74
2020/12/14 09:46:26;;;;;;;4.60;4.20;;;;;;;;;;5034273;28;20197;-74
2020/12/14 09:48:52;;;;;;;4.77;4.10;;;;;;;;;;5036620;28;20178;-75
2020/12/14 09:51:17;;;;;;;5.90;4.67;;;;;;;;;;5033102;28;20173;-73
2020/12/14 09:53:42;;;;;;;5.47;3.90;;;;;;;;;;5029984;28;20280;-76
2020/12/14 09:56:07;;;;;;;5.57;4.77;;;;;;;;;;5033142;28;20173;-74
2020/12/14 09:58:32;;;;;;;4.27;3.87;;;;;;;;;;5032906;28;20281;-76
2020/12/14 10:00:58;;;;;;;4.30;3.90;;;;;;;;;;5030536;28;20178;-75
2020/12/14 10:03:23;;;;;;;4.60;4.20;;;;;;;;;;5031087;28;20246;-76
2020/12/14 10:05:48;;;;;;;5.07;4.67;;;;;;;;;;5032136;28;20173;-76
2020/12/14 10:08:14;;;;;;;4.10;3.77;;;;;;;;;;5030355;28;20727;-76
2020/12/14 10:10:39;;;;;;;4.43;3.67;;;;;;;;;;5031598;28;20219;-75
2020/12/14 10:13:05;;;;;;;5.87;3.80;;;;;;;;;;5029886;28;20221;-76
2020/12/14 10:15:30;;;;;;;3.90;3.60;;;;;;;;;;5026745;28;20182;-76
2020/12/14 10:17:55;;;;;;;4.27;3.87;;;;;;;;;;5032840;28;20194;-76
2020/12/14 10:20:20;;;;;;;4.37;3.70;;;;;;;;;;5030325;28;20214;-75
2020/12/14 10:22:45;;;;;;;5.97;3.40;;;;;;;;;;5034706;28;20205;-76
2020/12/14 10:25:10;;;;;;;5.20;3.77;;;;;;;;;;5030718;28;20180;-76
2020/12/14 10:27:37;;;;;;;3.77;3.47;;;;;;;;;;5032667;28;20205;-75
2020/12/14 10:30:02;;;;;;;6.13;3.57;;;;;;;;;;5030520;28;20260;-75
2020/12/14 10:32:28;;;;;;;4.87;4.00;;;;;;;;;;5038284;28;20276;-75
2020/12/14 10:34:53;;;;;;;4.20;3.80;;;;;;;;;;5030224;28;20268;-74
2020/12/14 10:37:18;;;;;;;5.33;3.80;;;;;;;;;;5029330;28;20176;-74
2020/12/14 10:39:43;;;;;;;4.43;4.03;;;;;;;;;;5028537;28;20184;-74
2020/12/14 10:42:09;;;;;;;5.70;4.03;;;;;;;;;;5038826;28;20217;-74
2020/12/14 10:44:34;;;;;;;3.97;3.67;;;;;;;;;;5039112;28;20185;-74
2020/12/14 10:47:03;;;;;;;5.70;3.97;;;;;;;;;;5036210;28;20670;-74
2020/12/14 10:49:28;;;;;;;3.97;3.60;;;;;;;;;;5031618;28;20656;-74
2020/12/14 10:51:53;;;;;;;4.43;3.50;;;;;;;;;;5027576;28;20320;-75
2020/12/14 10:54:18;;;;;;;4.30;3.63;;;;;;;;;;5031358;28;20235;-75
2020/12/14 10:56:45;;;;;;;4.73;4.17;;;;;;;;;;5032464;28;20177;-74
2020/12/14 10:59:10;;;;;;;3.30;3.10;;;;;;;;;;5027409;28;20240;-74
2020/12/14 11:01:35;;;;;;;3.80;3.50;;;;;;;;;;5045886;28;20185;-75
2020/12/14 11:04:00;;;;;;;8.27;4.57;;;;;;;;;;5028778;28;20694;-75
2020/12/14 11:06:29;;;;;;;4.70;3.63;;;;;;;;;;5031286;28;20455;-74
2020/12/14 11:08:54;;;;;;;4.70;3.50;;;;;;;;;;5033404;28;20178;-74
2020/12/14 11:11:19;;;;;;;4.07;3.67;;;;;;;;;;5030897;28;20181;-74
2020/12/14 11:13:44;;;;;;;3.83;3.10;;;;;;;;;;5031084;28;20450;-74
2020/12/14 11:16:09;;;;;;;3.30;3.03;;;;;;;;;;5028775;28;20550;-74
2020/12/14 11:18:35;;;;;;;5.90;3.50;;;;;;;;;;5028897;28;20170;-74
2020/12/14 11:21:00;;;;;;;3.30;3.00;;;;;;;;;;5029409;28;20265;-73
2020/12/14 11:23:25;;;;;;;4.70;3.20;;;;;;;;;;5027511;28;20206;-74
2020/12/14 11:25:50;;;;;;;3.38;3.10;;;;;;;;;;5030496;28;20182;-76
2020/12/14 11:28:15;;;;;;;3.65;3.35;;;;;;;;;;5031776;28;20210;-74
2020/12/14 11:30:40;;;;;;;3.80;3.38;;;;;;;;;;5033332;28;20177;-74
2020/12/14 11:33:06;;;;;;;4.20;3.80;;;;;;;;;;5034286;28;20225;-74
2020/12/14 11:35:31;;;;;;;4.00;3.27;;;;;;;;;;5028048;28;20174;-74
2020/12/14 11:37:56;;;;;;;4.87;3.43;;;;;;;;;;5034322;28;20181;-75
2020/12/14 11:40:21;;;;;;;4.83;3.90;;;;;;;;;;5028587;28;20228;-73
2020/12/14 11:42:46;;;;;;;4.10;3.70;;;;;;;;;;5036810;28;20662;-73
2020/12/14 11:45:11;;;;;;;3.95;3.50;;;;;;;;;;5029483;28;20216;-74
2020/12/14 11:47:37;;;;;;;3.60;3.30;;;;;;;;;;5029320;28;20213;-74
2020/12/14 11:50:06;;;;;;;3.67;3.35;;;;;;;;;;5029192;28;20682;-74
2020/12/14 11:52:31;;;;;;;4.82;3.30;;;;;;;;;;5032456;28;20545;-75
2020/12/14 11:54:56;;;;;;;7.80;4.47;;;;;;;;;;5027175;28;20185;-76
2020/12/14 11:57:21;;;;;;;6.75;3.35;;;;;;;;;;5027344;28;20221;-74
2020/12/14 11:59:47;;;;;;;3.83;3.50;;;;;;;;;;5028787;28;20231;-75
2020/12/14 12:02:15;;;;;;;4.10;3.67;;;;;;;;;;5026955;28;20213;-74
2020/12/14 12:04:40;;;;;;;4.38;3.70;;;;;;;;;;5036277;28;20945;-75
2020/12/14 12:07:05;;;;;;;4.80;3.67;;;;;;;;;;5036874;28;20297;-74
2020/12/14 12:09:34;;;;;;;4.78;3.67;;;;;;;;;;5029871;28;20184;-74
2020/12/14 12:12:00;;;;;;;8.63;4.35;;;;;;;;;;5030833;28;20210;-75
2020/12/14 12:14:25;;;;;;;4.10;3.70;;;;;;;;;;5028504;28;20990;-77
2020/12/14 12:16:50;;;;;;;6.32;3.55;;;;;;;;;;5031535;28;20197;-74
2020/12/14 12:19:17;;;;;;;5.53;3.57;;;;;;;;;;5027996;28;20232;-75
2020/12/14 12:21:46;;;;;;;4.32;3.40;;;;;;;;;;5026926;28;21719;-75
2020/12/14 12:24:11;;;;;;;3.47;3.17;;;;;;;;;;5027482;28;20213;-76
2020/12/14 12:26:36;;;;;;;4.50;4.10;;;;;;;;;;5031232;28;20637;-75
2020/12/14 12:29:01;;;;;;;4.60;4.20;;;;;;;;;;5033178;28;20453;-74
2020/12/14 12:31:26;;;;;;;3.92;3.55;;;;;;;;;;5033558;28;21016;-76
2020/12/14 12:33:52;;;;;;;4.25;3.25;;;;;;;;;;5032081;28;20201;-75
2020/12/14 12:36:17;;;;;;;4.50;3.50;;;;;;;;;;5036025;28;20185;-75
2020/12/14 12:38:42;;;;;;;6.00;3.75;;;;;;;;;;5034188;28;20181;-76
2020/12/14 12:41:07;;;;;;;6.50;3.37;;;;;;;;;;5030175;28;20179;-75
2020/12/14 12:43:32;;;;;;;3.63;3.25;;;;;;;;;;5030713;28;20304;-75
2020/12/14 12:45:58;;;;;;;5.53;4.13;;;;;;;;;;5032050;28;20189;-76
2020/12/14 12:48:23;;;;;;;6.30;3.95;;;;;;;;;;5033038;28;20266;-76
2020/12/14 12:50:54;;;;;;;12.33;4.60;;;;;;;;;;5030510;28;20177;-75
2020/12/14 12:53:23;;;;;;;6.20;4.13;;;;;;;;;;5031486;28;20197;-74
2020/12/14 12:55:48;;;;;;;6.93;4.43;;;;;;;;;;5030766;28;20186;-75
2020/12/14 12:58:13;;;;;;;7.10;4.97;;;;;;;;;;5028089;28;20181;-75
2020/12/14 13:00:39;;;;;;;7.10;4.28;;;;;;;;;;5033779;28;20220;-74
2020/12/14 13:03:04;;;;;;;7.00;4.60;;;;;;;;;;5030377;28;20205;-75
2020/12/14 13:05:29;;;;;;;8.60;4.13;;;;;;;;;;5033449;28;20177;-74
2020/12/14 13:07:54;;;;;;;4.85;4.28;;;;;;;;;;5035879;28;20216;-74
2020/12/14 13:10:19;;;;;;;10.20;5.07;;;;;;;;;;5030650;28;20189;-75
2020/12/14 13:12:44;;;;;;;5.85;4.40;;;;;;;;;;5029988;28;20484;-75
2020/12/14 13:15:10;;;;;;;5.87;4.93;;;;;;;;;;5028726;28;20197;-77
2020/12/14 13:17:35;;;;;;;5.23;4.40;;;;;;;;;;5035195;28;20236;-74
2020/12/14 13:20:00;;;;;;;7.07;4.27;;;;;;;;;;5031455;28;20213;-75
2020/12/14 13:22:25;;;;;;;5.75;4.55;;;;;;;;;;5033626;28;20205;-75
2020/12/14 13:24:50;;;;;;;6.35;4.65;;;;;;;;;;5032280;28;20589;-75
2020/12/14 13:27:15;;;;;;;5.03;4.30;;;;;;;;;;5033254;28;20206;-73
2020/12/14 13:29:41;;;;;;;7.90;4.25;;;;;;;;;;5029300;28;20185;-74
2020/12/14 13:32:07;;;;;;;5.23;3.53;;;;;;;;;;5034833;28;20182;-74
2020/12/14 13:34:33;;;;;;;4.83;3.63;;;;;;;;;;5032530;28;20173;-75
2020/12/14 13:36:58;;;;;;;5.00;3.57;;;;;;;;;;5032437;28;20633;-74
2020/12/14 13:39:23;;;;;;;4.85;3.75;;;;;;;;;;5031572;28;20186;-74
2020/12/14 13:41:48;;;;;;;5.13;3.85;;;;;;;;;;5034033;28;20212;-74
2020/12/14 13:44:14;;;;;;;6.00;4.20;;;;;;;;;;5036271;28;20304;-74
2020/12/14 13:46:39;;;;;;;6.90;3.60;;;;;;;;;;5038082;28;20257;-74
2020/12/14 13:49:04;;;;;;;8.27;3.92;;;;;;;;;;5036438;28;20179;-74
2020/12/14 13:51:30;;;;;;;5.22;3.80;;;;;;;;;;5036310;28;20567;-74
2020/12/14 13:53:55;;;;;;;5.18;3.25;;;;;;;;;;5037249;28;20256;-74
2020/12/14 13:56:20;;;;;;;4.72;3.70;;;;;;;;;;5036530;28;20568;-74
2020/12/14 13:58:45;;;;;;;8.25;3.75;;;;;;;;;;5033930;28;20186;-75
2020/12/14 14:01:11;;;;;;;4.53;3.77;;;;;;;;;;5033932;28;21329;-75
2020/12/14 14:03:36;;;;;;;5.25;3.63;;;;;;;;;;5033084;28;20206;-74
2020/12/14 14:06:02;;;;;;;6.97;3.38;;;;;;;;;;5032849;28;21607;-77
2020/12/14 14:08:27;;;;;;;5.20;4.10;;;;;;;;;;5036648;28;21680;-75
2020/12/14 14:10:52;;;;;;;4.10;3.53;;;;;;;;;;5032790;28;20166;-73
2020/12/14 14:13:17;;;;;;;5.13;3.67;;;;;;;;;;5031011;28;20217;-77
2020/12/14 14:15:43;;;;;;;5.57;3.90;;;;;;;;;;5030653;28;20196;-76
2020/12/14 14:18:08;;;;;;;4.03;3.30;;;;;;;;;;5033639;28;20209;-77
2020/12/14 14:20:33;;;;;;;4.60;3.33;;;;;;;;;;5030490;28;20601;-75
2020/12/14 14:22:58;;;;;;;6.07;4.20;;;;;;;;;;5031023;28;20202;-74
2020/12/14 14:25:23;;;;;;;7.17;3.80;;;;;;;;;;5031267;28;20228;-75
2020/12/14 14:27:49;;;;;;;6.97;3.77;;;;;;;;;;5036157;28;20208;-75
2020/12/14 14:30:14;;;;;;;5.17;3.37;;;;;;;;;;5033033;28;20174;-76
2020/12/14 14:32:42;;;;;;;7.07;3.03;;;;;;;;;;5034390;28;20202;-75
2020/12/14 14:35:09;;;;;;;5.00;3.00;;;;;;;;;;5031903;28;20186;-76
2020/12/14 14:37:36;;;;;;;5.57;3.50;;;;;;;;;;5032007;28;20173;-76